Time;durP1;ratioP1;P1;durP2;ratioP2;P2;SDS_P1;SDS_P2;PMS_P1;PMS_P2;Temp;Humidity;BMP_temperature;BMP_pressure;BME280_temperature;BME280_humidity;BME280_pressure;Samples;Min_cycle;Max_cycle;Signal;HPM_P1;HPM_P2
2021/09/01 00:00:15;;;;;;;;;46.50;37.75;28.90;37.40;;;;;;697327;28;6013;-85
2021/09/01 00:00:36;;;;;;;;;40.75;35.00;28.90;37.40;;;;;;694375;28;6559;-86
2021/09/01 00:00:56;;;;;;;;;44.25;37.50;28.80;37.20;;;;;;694696;28;5987;-85
2021/09/01 00:01:17;;;;;;;;;44.25;35.75;28.80;37.30;;;;;;694671;28;6091;-85
2021/09/01 00:01:38;;;;;;;;;42.50;36.25;28.90;37.30;;;;;;694479;28;5938;-83
2021/09/01 00:01:58;;;;;;;;;39.50;35.00;28.90;37.30;;;;;;694570;28;5949;-83
2021/09/01 00:02:19;;;;;;;;;42.50;36.50;28.90;37.30;;;;;;694132;28;6005;-86
2021/09/01 00:02:40;;;;;;;;;39.50;34.50;28.80;37.10;;;;;;694390;28;6223;-83
2021/09/01 00:03:01;;;;;;;;;38.00;34.00;28.80;37.10;;;;;;697260;28;6062;-86
2021/09/01 00:03:22;;;;;;;;;31.40;30.40;28.90;37.00;;;;;;697190;28;6529;-84
2021/09/01 00:03:43;;;;;;;;;37.00;31.33;28.90;37.10;;;;;;697171;28;5863;-85
2021/09/01 00:04:04;;;;;;;;;34.50;32.00;28.90;37.20;;;;;;697262;28;6164;-85
2021/09/01 00:04:25;;;;;;;;;36.60;32.00;28.80;37.20;;;;;;697307;28;6096;-85
2021/09/01 00:04:46;;;;;;;;;36.00;33.00;28.80;37.00;;;;;;697414;28;6219;-84
2021/09/01 00:05:07;;;;;;;;;39.40;34.00;28.80;37.00;;;;;;697274;28;6003;-85
2021/09/01 00:05:28;;;;;;;;;32.00;30.00;28.80;37.10;;;;;;697480;28;5945;-84
2021/09/01 00:05:49;;;;;;;;;39.00;35.00;28.80;37.20;;;;;;697425;28;6628;-84
2021/09/01 00:06:10;;;;;;;;;36.00;33.00;28.80;37.20;;;;;;697150;28;5904;-85
2021/09/01 00:06:30;;;;;;;;;32.20;30.60;28.80;38.40;;;;;;697418;28;6015;-84
2021/09/01 00:06:51;;;;;;;;;35.25;32.00;28.80;37.20;;;;;;697478;28;5847;-84
2021/09/01 00:07:12;;;;;;;;;38.00;32.00;28.80;37.10;;;;;;697542;28;5931;-84
2021/09/01 00:07:37;;;;;;;;;35.80;33.00;28.80;37.20;;;;;;697423;28;6021;-84
2021/09/01 00:07:57;;;;;;;;;35.00;32.00;28.80;37.20;;;;;;697501;28;6069;-85
2021/09/01 00:08:18;;;;;;;;;32.00;30.75;28.80;36.20;;;;;;697357;28;6020;-85
2021/09/01 00:08:39;;;;;;;;;34.20;30.00;28.80;37.20;;;;;;697584;28;6149;-85
2021/09/01 00:08:59;;;;;;;;;36.20;33.00;28.80;37.20;;;;;;697392;28;5979;-86
2021/09/01 00:09:20;;;;;;;;;32.00;30.00;28.70;37.10;;;;;;697361;28;5899;-84
2021/09/01 00:09:41;;;;;;;;;37.00;32.60;28.70;37.10;;;;;;697361;28;5990;-84
2021/09/01 00:10:03;;;;;;;;;37.60;33.60;28.80;37.20;;;;;;697539;28;6604;-84
2021/09/01 00:10:24;;;;;;;;;31.25;29.25;28.80;37.20;;;;;;697463;28;6099;-85
2021/09/01 00:10:45;;;;;;;;;33.00;31.25;28.80;37.20;;;;;;697658;28;5912;-84
2021/09/01 00:11:05;;;;;;;;;35.00;32.00;28.80;37.20;;;;;;698112;28;5870;-86
2021/09/01 00:11:26;;;;;;;;;32.75;30.75;28.80;37.30;;;;;;698521;28;5979;-86
2021/09/01 00:11:47;;;;;;;;;35.25;33.00;28.80;37.30;;;;;;698685;28;6112;-86
2021/09/01 00:12:08;;;;;;;;;38.40;34.40;28.80;37.20;;;;;;698823;28;6199;-84
2021/09/01 00:12:29;;;;;;;;;33.00;30.60;28.70;37.10;;;;;;698837;28;5997;-86
2021/09/01 00:12:50;;;;;;;;;36.50;33.50;28.70;37.10;;;;;;698796;28;6055;-85
2021/09/01 00:13:12;;;;;;;;;39.25;34.75;28.80;37.30;;;;;;698582;28;5466;-83
2021/09/01 00:13:33;;;;;;;;;33.40;32.00;28.70;37.20;;;;;;697898;28;6430;-87
2021/09/01 00:13:54;;;;;;;;;31.50;30.25;28.70;37.20;;;;;;697944;28;6613;-85
2021/09/01 00:14:15;;;;;;;;;40.50;33.00;28.80;37.50;;;;;;697609;28;6169;-86
2021/09/01 00:14:36;;;;;;;;;36.00;33.00;28.70;36.10;;;;;;696698;28;6425;-86
2021/09/01 00:14:57;;;;;;;;;37.00;33.00;28.70;37.20;;;;;;697233;28;5919;-83
2021/09/01 00:15:18;;;;;;;;;32.00;31.00;28.70;37.10;;;;;;697228;28;6306;-86
2021/09/01 00:15:38;;;;;;;;;33.20;31.20;28.70;37.20;;;;;;697194;28;5893;-84
2021/09/01 00:15:59;;;;;;;;;30.40;29.60;28.70;37.00;;;;;;697494;28;5996;-86
2021/09/01 00:16:26;;;;;;;;;29.75;28.75;28.70;37.10;;;;;;697432;28;5951;-85
2021/09/01 00:16:46;;;;;;;;;36.60;32.00;28.70;37.10;;;;;;697311;28;6608;-88
2021/09/01 00:17:07;;;;;;;;;37.00;33.75;28.70;37.20;;;;;;697371;28;6059;-87
2021/09/01 00:17:28;;;;;;;;;34.20;32.00;28.70;37.10;;;;;;697399;28;5962;-86
2021/09/01 00:17:49;;;;;;;;;29.50;29.25;28.70;37.20;;;;;;697492;28;5548;-86
2021/09/01 00:18:12;;;;;;;;;32.40;31.40;28.70;37.20;;;;;;697308;28;6569;-87
2021/09/01 00:18:33;;;;;;;;;39.60;35.00;28.70;38.00;;;;;;697549;28;6124;-87
2021/09/01 00:18:56;;;;;;;;;32.75;30.75;28.50;36.00;;;;;;697499;28;5900;-82
2021/09/01 00:19:16;;;;;;;;;28.40;27.40;28.70;37.10;;;;;;697303;28;6389;-83
2021/09/01 00:19:37;;;;;;;;;32.60;30.00;28.70;37.00;;;;;;697177;28;5897;-87
2021/09/01 00:19:58;;;;;;;;;36.33;32.00;28.70;37.10;;;;;;697195;28;5233;-86
2021/09/01 00:20:19;;;;;;;;;35.75;32.50;28.70;37.10;;;;;;697091;28;5823;-86
2021/09/01 00:20:39;;;;;;;;;33.40;32.00;28.70;36.10;;;;;;697337;28;5964;-87
2021/09/01 00:21:00;;;;;;;;;31.25;30.25;28.70;37.10;;;;;;697381;28;5971;-86
2021/09/01 00:21:21;;;;;;;;;33.50;31.25;28.70;37.10;;;;;;697201;28;6208;-85
2021/09/01 00:21:42;;;;;;;;;33.75;30.75;28.70;36.00;;;;;;697223;28;5895;-86
2021/09/01 00:22:03;;;;;;;;;31.20;29.20;28.70;37.00;;;;;;697561;28;5930;-86
2021/09/01 00:22:24;;;;;;;;;32.00;30.00;28.70;36.90;;;;;;697378;28;6035;-87
2021/09/01 00:22:44;;;;;;;;;31.00;30.00;28.70;37.00;;;;;;697405;28;6592;-84
2021/09/01 00:23:05;;;;;;;;;35.25;31.75;28.70;36.90;;;;;;697237;28;5942;-86
2021/09/01 00:23:26;;;;;;;;;30.67;29.67;28.70;37.00;;;;;;697254;28;6154;-86
2021/09/01 00:23:47;;;;;;;;;33.50;31.75;28.70;36.90;;;;;;696633;28;5943;-85
2021/09/01 00:24:07;;;;;;;;;33.25;29.25;28.70;35.90;;;;;;697066;28;5751;-87
2021/09/01 00:24:28;;;;;;;;;28.25;26.50;28.70;37.40;;;;;;697211;28;6501;-86
2021/09/01 00:24:49;;;;;;;;;26.00;26.00;28.70;36.90;;;;;;697065;28;6444;-84
2021/09/01 00:25:10;;;;;;;;;32.75;29.00;28.70;36.90;;;;;;697111;28;6783;-87
2021/09/01 00:25:31;;;;;;;;;33.00;31.80;28.70;36.80;;;;;;696834;28;5980;-84
2021/09/01 00:25:51;;;;;;;;;30.60;28.40;28.70;36.90;;;;;;697241;28;6603;-84
2021/09/01 00:26:12;;;;;;;;;28.50;28.50;28.70;36.80;;;;;;697243;28;5949;-85
2021/09/01 00:26:33;;;;;;;;;36.00;32.25;28.70;36.80;;;;;;697281;28;6208;-85
2021/09/01 00:26:54;;;;;;;;;31.60;29.60;28.70;36.90;;;;;;697221;28;5957;-85
2021/09/01 00:27:15;;;;;;;;;28.40;28.40;28.70;36.90;;;;;;697199;28;6815;-85
2021/09/01 00:27:36;;;;;;;;;28.33;27.00;28.70;36.80;;;;;;697161;28;5412;-84
2021/09/01 00:27:57;;;;;;;;;34.00;31.50;28.70;36.80;;;;;;697280;28;6426;-85
2021/09/01 00:28:17;;;;;;;;;36.33;33.00;28.80;36.90;;;;;;697270;28;5856;-85
2021/09/01 00:28:38;;;;;;;;;31.20;29.80;28.70;36.80;;;;;;697239;28;6003;-83
2021/09/01 00:29:00;;;;;;;;;31.50;29.75;28.80;36.90;;;;;;697520;28;5986;-84
2021/09/01 00:29:20;;;;;;;;;33.20;30.60;28.80;36.90;;;;;;697012;28;6512;-84
2021/09/01 00:29:41;;;;;;;;;29.60;29.20;28.80;36.90;;;;;;697128;28;6065;-80
2021/09/01 00:30:03;;;;;;;;;33.80;29.20;28.80;36.80;;;;;;697282;28;5950;-83
2021/09/01 00:30:24;;;;;;;;;26.50;26.50;28.80;37.90;;;;;;697016;28;7587;-85
2021/09/01 00:30:45;;;;;;;;;33.75;31.00;28.70;36.70;;;;;;697244;28;6063;-84
2021/09/01 00:31:05;;;;;;;;;34.00;31.25;28.70;36.70;;;;;;696608;28;5890;-83
2021/09/01 00:31:26;;;;;;;;;28.50;27.50;28.70;36.70;;;;;;696965;28;6088;-84
2021/09/01 00:31:47;;;;;;;;;26.00;25.00;28.70;36.80;;;;;;696881;28;7547;-84
2021/09/01 00:32:08;;;;;;;;;26.75;24.75;28.70;36.70;;;;;;696935;28;6022;-82
2021/09/01 00:32:28;;;;;;;;;33.50;31.00;28.70;36.80;;;;;;697280;28;6514;-81
2021/09/01 00:32:49;;;;;;;;;29.50;28.00;28.80;36.70;;;;;;697506;28;5287;-85
2021/09/01 00:33:10;;;;;;;;;34.80;31.40;28.80;36.70;;;;;;699893;28;5940;-84
2021/09/01 00:33:31;;;;;;;;;27.80;25.40;28.80;36.70;;;;;;699410;28;5848;-85
2021/09/01 00:33:52;;;;;;;;;28.75;27.00;28.80;36.70;;;;;;697410;28;5965;-85
2021/09/01 00:34:13;;;;;;;;;28.25;27.25;;;;;;;;697296;28;6070;-84
2021/09/01 00:34:37;;;;;;;;;30.00;29.00;28.70;35.60;;;;;;697324;28;6096;-86
2021/09/01 00:34:57;;;;;;;;;29.00;28.80;28.70;37.10;;;;;;697406;28;6059;-85
2021/09/01 00:35:18;;;;;;;;;27.75;27.00;28.70;37.00;;;;;;697459;28;5902;-83
2021/09/01 00:35:39;;;;;;;;;33.00;31.25;28.80;36.90;;;;;;697127;28;6149;-85
2021/09/01 00:36:00;;;;;;;;;30.25;26.25;28.80;36.70;;;;;;697010;28;6210;-84
2021/09/01 00:36:21;;;;;;;;;25.40;25.40;28.80;36.70;;;;;;693695;28;5923;-85
2021/09/01 00:36:41;;;;;;;;;29.00;27.00;28.80;36.70;;;;;;694429;28;6653;-85
2021/09/01 00:37:03;;;;;;;;;27.50;27.50;28.70;36.80;;;;;;694314;28;5832;-86
2021/09/01 00:37:24;;;;;;;;;26.00;25.00;;;;;;;;694547;28;5861;-85
2021/09/01 00:37:44;;;;;;;;;25.00;25.00;28.70;35.50;;;;;;694488;28;5965;-85
2021/09/01 00:38:05;;;;;;;;;25.00;25.00;28.70;36.90;;;;;;697116;28;5998;-85
2021/09/01 00:38:26;;;;;;;;;25.00;25.00;;;;;;;;697305;28;5711;-85
2021/09/01 00:38:48;;;;;;;;;23.60;22.60;28.70;35.50;;;;;;699816;28;6809;-86
2021/09/01 00:39:09;;;;;;;;;30.75;29.50;28.70;36.60;;;;;;700117;28;6164;-84
2021/09/01 00:39:29;;;;;;;;;31.00;30.00;28.70;36.70;;;;;;700058;28;5876;-86
2021/09/01 00:39:50;;;;;;;;;25.00;25.00;28.70;36.60;;;;;;699809;28;5929;-85
2021/09/01 00:40:11;;;;;;;;;31.75;30.00;28.70;36.60;;;;;;700056;28;5967;-85
2021/09/01 00:40:32;;;;;;;;;32.75;29.50;28.70;35.60;;;;;;699948;28;6053;-85
2021/09/01 00:40:55;;;;;;;;;30.50;29.50;28.70;36.60;;;;;;700201;28;6012;-86
2021/09/01 00:41:18;;;;;;;;;28.25;26.25;28.80;36.60;;;;;;699936;28;6253;-86
2021/09/01 00:41:40;;;;;;;;;24.75;23.75;28.70;36.50;;;;;;699572;28;6542;-88
2021/09/01 00:42:03;;;;;;;;;27.80;26.40;28.80;36.60;;;;;;699780;28;6408;-87
2021/09/01 00:42:24;;;;;;;;;28.00;26.20;28.70;36.40;;;;;;699877;28;6347;-87
2021/09/01 00:42:44;;;;;;;;;27.00;24.00;28.70;35.50;;;;;;698654;28;6026;-85
2021/09/01 00:43:05;;;;;;;;;26.25;24.75;28.70;36.60;;;;;;697018;28;6086;-85
2021/09/01 00:43:26;;;;;;;;;33.50;30.00;28.80;36.40;;;;;;697275;28;5912;-86
2021/09/01 00:43:52;;;;;;;;;29.20;28.80;28.70;35.40;;;;;;697082;28;6270;-86
2021/09/01 00:44:23;;;;;;;;;25.75;25.75;28.70;36.50;;;;;;703182;27;6477;-86
2021/09/01 00:44:46;;;;;;;;;25.25;23.00;28.70;36.40;;;;;;703511;27;7576;-84
2021/09/01 00:45:07;;;;;;;;;28.20;28.00;28.80;36.40;;;;;;705367;27;6456;-85
2021/09/01 00:45:28;;;;;;;;;23.40;22.40;28.80;36.50;;;;;;705463;27;6147;-82
2021/09/01 00:45:49;;;;;;;;;23.40;23.00;28.70;36.50;;;;;;705455;27;5923;-86
2021/09/01 00:46:10;;;;;;;;;25.20;24.20;28.80;36.40;;;;;;700998;27;6081;-87
2021/09/01 00:46:30;;;;;;;;;24.40;23.40;28.70;36.30;;;;;;700134;28;5977;-87
2021/09/01 00:46:52;;;;;;;;;27.67;26.00;28.80;36.40;;;;;;699970;28;5915;-87
2021/09/01 00:47:21;;;;;;;;;28.80;27.00;28.80;36.40;;;;;;700099;28;6093;-86
2021/09/01 00:47:42;;;;;;;;;25.00;25.00;28.80;36.30;;;;;;699644;28;6399;-84
2021/09/01 00:48:03;;;;;;;;;23.00;22.20;28.70;35.30;;;;;;699734;28;6616;-86
2021/09/01 00:48:24;;;;;;;;;24.80;23.20;28.80;36.60;;;;;;697948;28;6033;-86
2021/09/01 00:48:46;;;;;;;;;25.20;23.20;28.80;36.40;;;;;;696983;28;6785;-84
2021/09/01 00:49:07;;;;;;;;;27.00;26.00;28.80;36.40;;;;;;696944;28;6588;-85
2021/09/01 00:49:28;;;;;;;;;26.00;26.00;28.80;36.40;;;;;;697204;28;6135;-84
2021/09/01 00:49:52;;;;;;;;;25.75;25.00;28.80;36.40;;;;;;697376;28;6255;-83
2021/09/01 00:50:13;;;;;;;;;29.00;28.00;28.80;36.30;;;;;;699849;28;6165;-84
2021/09/01 00:50:33;;;;;;;;;29.00;27.25;28.80;36.20;;;;;;700076;28;5882;-86
2021/09/01 00:50:59;;;;;;;;;28.00;24.60;28.80;36.20;;;;;;700037;28;5994;-85
2021/09/01 00:51:20;;;;;;;;;25.00;24.50;28.80;36.20;;;;;;699740;28;6420;-85
2021/09/01 00:51:49;;;;;;;;;30.00;29.00;28.80;36.30;;;;;;697263;28;6197;-84
2021/09/01 00:52:11;;;;;;;;;26.00;25.00;28.80;36.30;;;;;;697111;28;6568;-86
2021/09/01 00:52:34;;;;;;;;;31.00;30.00;28.80;36.30;;;;;;696486;28;6355;-85
2021/09/01 00:52:55;;;;;;;;;29.60;27.60;28.80;36.10;;;;;;698017;28;6485;-85
2021/09/01 00:53:17;;;;;;;;;24.40;24.40;28.80;36.20;;;;;;697444;28;6048;-83
2021/09/01 00:53:44;;;;;;;;;28.00;26.20;28.80;36.10;;;;;;699944;28;6166;-83
2021/09/01 00:54:06;;;;;;;;;28.00;26.60;28.80;35.30;;;;;;698915;28;6328;-85
2021/09/01 00:54:29;;;;;;;;;24.00;24.00;28.80;36.40;;;;;;697534;28;6403;-85
2021/09/01 00:54:50;;;;;;;;;25.60;24.00;28.80;35.10;;;;;;698498;28;6365;-85
2021/09/01 00:55:12;;;;;;;;;25.00;24.60;28.80;36.10;;;;;;700095;28;5969;-86
2021/09/01 00:55:33;;;;;;;;;28.40;27.60;28.80;36.20;;;;;;693458;28;6269;-84
2021/09/01 00:55:56;;;;;;;;;27.00;26.00;28.80;36.10;;;;;;694211;28;5976;-85
2021/09/01 00:56:19;;;;;;;;;25.00;24.60;28.80;35.80;;;;;;688899;28;6381;-86
2021/09/01 00:56:44;;;;;;;;;25.00;25.00;28.90;36.00;;;;;;688486;28;6493;-83
2021/09/01 00:57:07;;;;;;;;;27.20;25.80;28.80;35.90;;;;;;688425;28;7623;-85
2021/09/01 00:57:27;;;;;;;;;26.50;24.50;28.90;36.00;;;;;;692386;28;6343;-85
2021/09/01 00:57:49;;;;;;;;;27.60;24.60;28.80;35.90;;;;;;694319;28;6052;-85
2021/09/01 00:58:18;;;;;;;;;26.80;25.60;28.90;36.00;;;;;;694089;28;6260;-85
2021/09/01 00:58:39;;;;;;;;;24.80;23.80;28.90;35.90;;;;;;694170;28;6328;-86
2021/09/01 00:59:00;;;;;;;;;28.00;28.00;28.90;35.80;;;;;;694395;28;5930;-84
2021/09/01 00:59:24;;;;;;;;;29.50;27.75;28.90;35.90;;;;;;694493;28;6112;-85
2021/09/01 00:59:45;;;;;;;;;25.50;25.25;28.90;35.70;;;;;;694375;28;6990;-83
2021/09/01 01:00:07;;;;;;;;;22.75;22.00;28.90;35.80;;;;;;695265;28;6047;-87
2021/09/01 01:00:46;;;;;;;;;29.00;27.50;28.90;35.60;;;;;;699779;28;6280;-84
2021/09/01 01:01:16;;;;;;;;;29.60;27.60;28.90;35.80;;;;;;699800;28;6623;-86
2021/09/01 01:01:37;;;;;;;;;30.00;29.00;28.90;35.60;;;;;;699803;28;6232;-83
2021/09/01 01:01:59;;;;;;;;;33.00;30.00;28.90;35.70;;;;;;700003;28;6062;-87
2021/09/01 01:02:22;;;;;;;;;27.40;25.40;28.90;35.60;;;;;;699686;28;6540;-84
2021/09/01 01:02:42;;;;;;;;;30.00;29.00;28.90;35.60;;;;;;699790;28;6179;-83
2021/09/01 01:03:03;;;;;;;;;28.50;27.50;28.90;35.70;;;;;;699786;28;5947;-83
2021/09/01 01:03:24;;;;;;;;;26.75;24.75;28.90;35.80;;;;;;700080;28;5950;-84
2021/09/01 01:03:49;;;;;;;;;25.50;24.25;28.90;35.80;;;;;;700005;28;5947;-85
2021/09/01 01:04:10;;;;;;;;;29.00;26.00;28.90;35.60;;;;;;699592;28;6285;-84
2021/09/01 01:04:31;;;;;;;;;24.40;23.40;28.90;35.60;;;;;;700041;28;6722;-88
2021/09/01 01:04:52;;;;;;;;;27.75;26.75;28.90;35.60;;;;;;699832;28;6608;-86
2021/09/01 01:05:13;;;;;;;;;26.25;26.25;28.90;35.70;;;;;;699995;28;5970;-87
2021/09/01 01:05:34;;;;;;;;;33.00;30.50;28.90;35.60;;;;;;700061;28;6585;-85
2021/09/01 01:05:58;;;;;;;;;26.00;25.50;28.90;35.70;;;;;;700050;28;6063;-86
2021/09/01 01:06:24;;;;;;;;;29.50;26.00;28.90;35.70;;;;;;699976;28;6223;-86
2021/09/01 01:06:45;;;;;;;;;34.40;28.60;28.90;35.70;;;;;;699944;28;6224;-87
2021/09/01 01:07:07;;;;;;;;;27.33;25.00;28.90;34.70;;;;;;700021;28;5887;-87
2021/09/01 01:07:28;;;;;;;;;33.80;30.40;28.90;35.80;;;;;;700011;28;6499;-86
2021/09/01 01:07:49;;;;;;;;;26.00;26.00;28.90;35.60;;;;;;699669;28;5923;-88
2021/09/01 01:08:11;;;;;;;;;25.50;25.50;28.90;35.60;;;;;;699777;28;5807;-88
2021/09/01 01:08:32;;;;;;;;;28.80;27.00;28.90;35.70;;;;;;699619;28;6517;-86
2021/09/01 01:08:53;;;;;;;;;27.80;26.80;28.90;35.80;;;;;;699959;28;6029;-87
2021/09/01 01:09:14;;;;;;;;;28.20;28.00;28.90;35.70;;;;;;699609;28;6512;-87
2021/09/01 01:09:39;;;;;;;;;22.25;22.25;28.90;35.70;;;;;;699939;28;5819;-83
2021/09/01 01:10:00;;;;;;;;;25.40;24.60;28.90;35.70;;;;;;700044;28;6194;-84
2021/09/01 01:10:21;;;;;;;;;26.50;25.50;28.90;35.60;;;;;;699811;28;5973;-82
2021/09/01 01:10:45;;;;;;;;;28.50;25.00;28.90;36.00;;;;;;700045;28;6565;-87
2021/09/01 01:11:14;;;;;;;;;30.80;28.00;28.90;35.90;;;;;;699774;28;6175;-86
2021/09/01 01:11:36;;;;;;;;;29.80;27.40;28.90;34.70;;;;;;699902;28;6487;-85
2021/09/01 01:12:11;;;;;;;;;27.25;25.25;28.90;35.70;;;;;;699937;28;6195;-85
2021/09/01 01:12:33;;;;;;;;;25.00;25.00;28.90;35.70;;;;;;696694;28;6301;-86
2021/09/01 01:12:54;;;;;;;;;24.40;23.80;28.90;35.80;;;;;;696887;28;6861;-87
2021/09/01 01:13:15;;;;;;;;;24.00;23.00;28.90;35.80;;;;;;696959;28;6109;-87
2021/09/01 01:13:36;;;;;;;;;27.20;25.00;28.90;35.70;;;;;;696821;28;6735;-88
2021/09/01 01:13:57;;;;;;;;;28.25;25.25;28.90;35.80;;;;;;696855;28;5950;-86
2021/09/01 01:14:17;;;;;;;;;28.00;27.75;28.80;35.60;;;;;;696770;28;5990;-86
2021/09/01 01:14:44;;;;;;;;;30.40;27.00;28.80;34.80;;;;;;696986;28;6081;-85
2021/09/01 01:15:05;;;;;;;;;29.00;28.00;28.90;35.80;;;;;;697007;28;6583;-84
2021/09/01 01:15:26;;;;;;;;;26.75;26.00;28.80;35.70;;;;;;697268;28;5882;-85
2021/09/01 01:15:46;;;;;;;;;23.00;22.75;28.80;35.80;;;;;;697274;28;5981;-86
2021/09/01 01:16:07;;;;;;;;;30.00;28.25;28.80;35.70;;;;;;697206;28;5952;-83
2021/09/01 01:16:28;;;;;;;;;29.60;27.80;28.80;35.80;;;;;;697569;28;6057;-85
2021/09/01 01:16:49;;;;;;;;;27.00;26.25;28.80;35.80;;;;;;697145;28;5477;-86
2021/09/01 01:17:12;;;;;;;;;27.50;25.00;28.80;35.80;;;;;;696834;28;6650;-88
2021/09/01 01:17:33;;;;;;;;;28.50;26.75;28.80;35.80;;;;;;696916;28;6301;-86
2021/09/01 01:17:54;;;;;;;;;24.80;24.00;;;;;;;;694415;28;6705;-85
2021/09/01 01:18:16;;;;;;;;;30.00;28.25;28.80;34.80;;;;;;694256;28;6018;-83
2021/09/01 01:18:37;;;;;;;;;28.40;23.60;28.80;35.80;;;;;;693935;28;6320;-86
2021/09/01 01:18:59;;;;;;;;;24.50;23.00;28.80;35.80;;;;;;695143;28;6147;-84
2021/09/01 01:19:20;;;;;;;;;26.25;24.75;28.80;35.80;;;;;;696859;28;6272;-87
2021/09/01 01:19:43;;;;;;;;;27.80;27.60;28.80;35.80;;;;;;697371;28;6449;-86
2021/09/01 01:20:04;;;;;;;;;26.40;25.00;28.80;36.90;;;;;;697981;28;6518;-84
2021/09/01 01:20:25;;;;;;;;;29.00;28.50;28.80;35.80;;;;;;698013;28;5979;-84
2021/09/01 01:20:50;;;;;;;;;25.00;24.50;28.80;35.80;;;;;;698088;28;6212;-86
2021/09/01 01:21:12;;;;;;;;;23.20;23.20;28.80;35.80;;;;;;698004;28;6390;-85
2021/09/01 01:21:33;;;;;;;;;23.60;23.00;;;;;;;;699138;28;6414;-83
2021/09/01 01:21:55;;;;;;;;;27.40;27.00;28.70;34.80;;;;;;699832;28;5991;-85
2021/09/01 01:22:17;;;;;;;;;29.25;27.00;28.80;34.90;;;;;;699588;28;7828;-84
2021/09/01 01:22:38;;;;;;;;;27.25;26.25;28.70;35.70;;;;;;699652;28;6353;-86
2021/09/01 01:22:59;;;;;;;;;25.00;24.00;28.70;35.80;;;;;;699830;28;5891;-84
2021/09/01 01:23:21;;;;;;;;;24.00;23.75;28.80;35.90;;;;;;699559;28;7514;-80
2021/09/01 01:23:42;;;;;;;;;28.20;25.20;28.80;35.90;;;;;;699151;28;6358;-84
2021/09/01 01:24:03;;;;;;;;;25.00;24.50;28.80;35.90;;;;;;699701;28;6920;-81
2021/09/01 01:24:43;;;;;;;;;27.60;26.60;28.80;35.80;;;;;;699851;28;6016;-84
2021/09/01 01:25:07;;;;;;;;;21.50;21.50;28.80;36.60;;;;;;699722;28;6183;-84
2021/09/01 01:25:38;;;;;;;;;24.80;24.80;;;;;;;;699672;28;6354;-85
2021/09/01 01:25:59;;;;;;;;;23.00;23.00;28.80;34.90;;;;;;699553;28;6616;-81
2021/09/01 01:26:21;;;;;;;;;23.50;23.00;28.70;35.80;;;;;;699591;28;6240;-85
2021/09/01 01:26:41;;;;;;;;;28.00;25.50;28.80;35.80;;;;;;699995;28;7143;-86
2021/09/01 01:27:02;;;;;;;;;27.00;25.50;28.80;35.80;;;;;;700046;28;6246;-85
2021/09/01 01:27:41;;;;;;;;;30.00;26.60;28.70;35.80;;;;;;699969;28;6075;-86
2021/09/01 01:28:02;;;;;;;;;23.80;23.40;28.80;35.80;;;;;;700020;28;6262;-80
2021/09/01 01:28:22;;;;;;;;;29.40;26.00;28.70;35.80;;;;;;700090;28;6063;-86
2021/09/01 01:28:56;;;;;;;;;25.00;22.00;28.70;35.80;;;;;;700068;28;5801;-86
2021/09/01 01:29:17;;;;;;;;;26.20;24.20;28.70;34.80;;;;;;699946;28;6176;-85
2021/09/01 01:29:38;;;;;;;;;28.60;25.00;28.70;34.80;;;;;;699782;28;6011;-85
2021/09/01 01:30:08;;;;;;;;;26.80;25.20;28.70;34.80;;;;;;700191;28;5929;-86
2021/09/01 01:30:29;;;;;;;;;24.40;23.00;28.70;35.80;;;;;;699711;28;6453;-86
2021/09/01 01:30:50;;;;;;;;;31.00;29.00;28.70;35.80;;;;;;699572;28;5912;-85
2021/09/01 01:31:10;;;;;;;;;30.40;28.40;28.70;35.90;;;;;;699688;28;6076;-87
2021/09/01 01:31:34;;;;;;;;;28.00;25.00;28.70;34.90;;;;;;699261;28;5712;-83
2021/09/01 01:31:55;;;;;;;;;24.40;23.00;28.70;34.80;;;;;;698137;28;6387;-86
2021/09/01 01:32:16;;;;;;;;;24.75;23.00;28.70;34.80;;;;;;697936;28;6072;-87
2021/09/01 01:32:38;;;;;;;;;29.75;29.75;28.70;34.80;;;;;;698206;28;6003;-87
2021/09/01 01:32:59;;;;;;;;;23.00;22.60;28.70;35.80;;;;;;697556;28;9845;-86
2021/09/01 01:33:19;;;;;;;;;22.00;21.40;28.80;35.80;;;;;;697498;28;5998;-86
2021/09/01 01:33:41;;;;;;;;;22.00;21.00;28.70;34.70;;;;;;697751;28;6163;-88
2021/09/01 01:34:03;;;;;;;;;22.60;21.60;28.80;35.80;;;;;;697474;28;6252;-85
2021/09/01 01:34:23;;;;;;;;;23.60;22.40;28.80;35.70;;;;;;697122;28;6211;-84
2021/09/01 01:34:44;;;;;;;;;23.60;22.60;28.80;35.80;;;;;;697136;28;5981;-87
2021/09/01 01:35:06;;;;;;;;;24.00;23.00;28.70;35.70;;;;;;697420;28;6606;-86
2021/09/01 01:35:36;;;;;;;;;24.00;23.00;;;;;;;;696887;28;8487;-86
2021/09/01 01:35:57;;;;;;;;;21.40;21.00;;;;;;;;697017;28;6299;-86
2021/09/01 01:36:18;;;;;;;;;21.50;21.00;28.80;34.60;;;;;;697060;28;5927;-86
2021/09/01 01:36:39;;;;;;;;;24.50;23.50;28.80;35.70;;;;;;696865;28;6479;-86
2021/09/01 01:37:07;;;;;;;;;24.60;24.60;28.80;35.70;;;;;;697100;28;6625;-85
2021/09/01 01:37:28;;;;;;;;;24.00;23.00;28.80;35.50;;;;;;697184;28;6342;-85
2021/09/01 01:37:49;;;;;;;;;22.00;22.00;28.80;35.60;;;;;;697258;28;5887;-86
2021/09/01 01:38:18;;;;;;;;;22.00;22.00;28.20;35.30;;;;;;697168;28;6171;-84
2021/09/01 01:38:39;;;;;;;;;27.25;26.00;;;;;;;;696835;28;6631;-84
2021/09/01 01:39:00;;;;;;;;;24.00;23.20;28.80;34.40;;;;;;697191;28;5994;-85
2021/09/01 01:39:21;;;;;;;;;22.75;22.75;28.80;35.60;;;;;;697212;28;5982;-85
2021/09/01 01:39:41;;;;;;;;;23.00;23.00;28.80;35.90;;;;;;696967;28;6190;-85
2021/09/01 01:40:03;;;;;;;;;24.00;23.00;28.80;35.60;;;;;;697164;28;6004;-85
2021/09/01 01:40:25;;;;;;;;;24.20;22.40;28.70;34.40;;;;;;697061;28;6396;-87
2021/09/01 01:40:47;;;;;;;;;26.75;25.75;28.80;35.50;;;;;;697055;28;6208;-85
2021/09/01 01:41:09;;;;;;;;;29.00;26.50;28.80;34.40;;;;;;697020;28;6392;-85
2021/09/01 01:41:29;;;;;;;;;22.50;22.50;28.80;35.30;;;;;;697535;28;6184;-83
2021/09/01 01:41:50;;;;;;;;;20.00;19.00;28.80;35.30;;;;;;697148;28;6046;-81
2021/09/01 01:42:11;;;;;;;;;24.40;22.80;;;;;;;;697144;28;5977;-85
2021/09/01 01:42:40;;;;;;;;;23.00;22.20;28.80;34.40;;;;;;697070;28;5995;-85
2021/09/01 01:43:01;;;;;;;;;26.75;26.50;28.80;35.40;;;;;;696860;28;6403;-83
2021/09/01 01:43:22;;;;;;;;;25.50;24.50;28.80;35.40;;;;;;697350;28;6129;-84
2021/09/01 01:43:47;;;;;;;;;24.00;24.00;28.90;35.50;;;;;;697035;28;5971;-83
2021/09/01 01:44:08;;;;;;;;;25.00;23.00;28.80;35.40;;;;;;696912;28;6421;-85
2021/09/01 01:44:29;;;;;;;;;21.40;21.00;28.90;35.30;;;;;;696835;28;6281;-84
2021/09/01 01:44:49;;;;;;;;;24.00;22.00;28.80;34.30;;;;;;696849;28;5493;-82
2021/09/01 01:45:11;;;;;;;;;24.80;24.20;28.80;34.30;;;;;;696844;28;6046;-85
2021/09/01 01:45:32;;;;;;;;;23.75;23.50;25.70;33.20;;;;;;696953;28;6479;-82
2021/09/01 01:45:52;;;;;;;;;23.20;23.20;28.80;34.20;;;;;;696954;28;6883;-84
2021/09/01 01:46:14;;;;;;;;;20.00;19.00;28.80;35.90;;;;;;696971;28;6071;-83
2021/09/01 01:46:38;;;;;;;;;20.60;20.00;28.80;34.30;;;;;;696819;28;6833;-82
2021/09/01 01:46:58;;;;;;;;;20.80;20.00;28.80;34.20;;;;;;696901;28;6355;-86
2021/09/01 01:47:19;;;;;;;;;23.00;21.00;28.80;35.30;;;;;;696992;28;6015;-83
2021/09/01 01:47:40;;;;;;;;;20.60;20.20;28.80;35.10;;;;;;696899;28;5971;-85
2021/09/01 01:48:01;;;;;;;;;23.00;23.00;28.80;35.30;;;;;;697154;28;5868;-80
2021/09/01 01:48:23;;;;;;;;;24.00;23.00;28.80;35.10;;;;;;697045;28;6403;-84
2021/09/01 01:48:44;;;;;;;;;22.20;22.00;28.80;34.20;;;;;;696499;28;6221;-85
2021/09/01 01:49:04;;;;;;;;;24.00;24.00;28.90;35.30;;;;;;699963;28;6648;-83
2021/09/01 01:49:25;;;;;;;;;23.00;23.00;28.80;35.20;;;;;;699769;28;5889;-84
2021/09/01 01:49:46;;;;;;;;;24.00;22.50;28.80;35.10;;;;;;699788;28;6113;-84
2021/09/01 01:50:07;;;;;;;;;22.00;21.50;28.80;35.20;;;;;;699603;28;5979;-85
2021/09/01 01:50:28;;;;;;;;;22.00;22.00;28.80;35.00;;;;;;699637;28;6025;-85
2021/09/01 01:50:49;;;;;;;;;22.00;22.00;28.80;35.10;;;;;;699739;28;6114;-83
2021/09/01 01:51:10;;;;;;;;;23.00;23.00;28.80;35.10;;;;;;699859;28;6018;-85
2021/09/01 01:51:30;;;;;;;;;22.40;21.00;28.80;35.00;;;;;;698701;28;6668;-85
2021/09/01 01:51:51;;;;;;;;;24.00;21.60;28.90;35.10;;;;;;696982;28;6702;-82
2021/09/01 01:52:11;;;;;;;;;21.67;20.00;28.80;34.20;;;;;;697184;28;6630;-86
2021/09/01 01:52:33;;;;;;;;;24.00;21.00;28.80;34.10;;;;;;697063;28;5847;-86
2021/09/01 01:52:55;;;;;;;;;22.00;21.80;28.80;35.10;;;;;;696889;28;6439;-85
2021/09/01 01:53:15;;;;;;;;;23.50;22.50;28.80;35.00;;;;;;696869;28;6514;-86
2021/09/01 01:53:36;;;;;;;;;20.00;20.00;28.80;35.10;;;;;;697056;28;6150;-85
2021/09/01 01:53:57;;;;;;;;;20.40;20.00;28.80;35.10;;;;;;697164;28;6031;-86
2021/09/01 01:54:17;;;;;;;;;19.25;19.25;28.80;35.10;;;;;;697086;28;5968;-86
2021/09/01 01:54:38;;;;;;;;;22.25;22.00;28.80;35.10;;;;;;696983;28;6973;-85